createdAt,value
2023-04-08T00:01:29.455Z,100973.84
2023-04-08T00:03:58.006Z,100973.22
2023-04-08T00:06:27.102Z,100965.63
2023-04-08T00:08:55.110Z,100971.94
2023-04-08T00:11:23.094Z,100959.06
2023-04-08T00:13:51.446Z,100968.97
2023-04-08T00:16:23.762Z,100974.31
2023-04-08T00:18:54.605Z,100973.94
2023-04-08T00:21:23.520Z,100980.22
2023-04-08T00:23:51.349Z,100978.81
2023-04-08T00:26:19.266Z,100977.38
2023-04-08T00:28:48.148Z,100980.28
2023-04-08T00:31:16.413Z,100978.03
2023-04-08T00:33:45.991Z,100982.81
2023-04-08T00:36:14.001Z,100982.06
2023-04-08T00:38:43.530Z,100984.31
2023-04-08T00:41:13.778Z,100978.38
2023-04-08T00:43:43.552Z,100976.03
2023-04-08T00:46:12.559Z,100977.22
2023-04-08T00:48:41.256Z,100975.63
2023-04-08T00:51:14.134Z,100980.03
2023-04-08T00:53:42.206Z,100984.53
2023-04-08T00:56:10.271Z,100987.66
2023-04-08T00:58:38.606Z,100984.56
2023-04-08T01:01:10.849Z,100989.06
2023-04-08T01:03:46.751Z,100989.22
2023-04-08T01:06:29.927Z,100982.50
2023-04-08T01:09:00.620Z,100982.72
2023-04-08T01:11:31.041Z,100990.84
2023-04-08T01:13:59.916Z,100980.63
2023-04-08T01:16:30.372Z,100991.44
2023-04-08T01:18:58.880Z,100988.16
2023-04-08T01:21:29.786Z,100991.81
2023-04-08T01:24:07.101Z,100980.00
2023-04-08T01:26:41.080Z,100977.72
2023-04-08T01:29:12.162Z,100975.19
2023-04-08T01:31:42.507Z,100988.47
2023-04-08T01:34:11.794Z,100989.47
2023-04-08T01:36:40.788Z,100994.84
2023-04-08T01:39:09.605Z,100994.03
2023-04-08T01:41:40.756Z,100988.13
2023-04-08T01:44:11.176Z,100989.88
2023-04-08T01:46:42.355Z,100998.66
2023-04-08T01:49:10.803Z,100985.75
2023-04-08T01:51:39.991Z,100987.50
2023-04-08T01:54:08.305Z,100989.19
2023-04-08T01:56:42.442Z,100990.31
2023-04-08T01:59:17.389Z,100984.97
2023-04-08T02:01:46.802Z,100989.78
2023-04-08T02:04:14.786Z,100996.88
2023-04-08T02:06:42.899Z,100994.09
2023-04-08T02:09:11.131Z,100996.22
2023-04-08T02:11:40.451Z,100995.34
2023-04-08T02:14:08.376Z,101001.44
2023-04-08T02:16:43.921Z,100997.38
2023-04-08T02:19:16.684Z,100998.47
2023-04-08T02:21:48.904Z,100998.66
2023-04-08T02:24:19.575Z,101006.50
2023-04-08T02:26:51.846Z,101007.31
2023-04-08T02:29:20.358Z,101009.19
2023-04-08T02:31:55.550Z,101011.81
2023-04-08T02:34:25.064Z,101019.81
2023-04-08T02:36:53.318Z,101017.44
2023-04-08T02:39:21.289Z,101021.06
2023-04-08T02:41:52.923Z,101024.78
2023-04-08T02:44:23.327Z,101012.88
2023-04-08T02:46:51.509Z,101024.25
2023-04-08T02:49:22.121Z,101019.91
2023-04-08T02:51:50.089Z,101023.66
2023-04-08T02:54:17.911Z,101024.56
2023-04-08T02:56:48.107Z,101024.13
2023-04-08T02:59:17.413Z,101025.88
2023-04-08T03:01:45.425Z,101021.41
2023-04-08T03:04:13.641Z,101026.06
2023-04-08T03:06:41.637Z,101035.72
2023-04-08T03:09:09.682Z,101035.84
2023-04-08T03:11:38.792Z,101031.44
2023-04-08T03:14:07.955Z,101026.25
2023-04-08T03:16:37.229Z,101035.03
2023-04-08T03:19:07.184Z,101026.50
2023-04-08T03:21:35.108Z,101034.44
2023-04-08T03:24:03.143Z,101039.75
2023-04-08T03:26:31.148Z,101028.59
2023-04-08T03:28:59.293Z,101038.56
2023-04-08T03:31:27.781Z,101044.72
2023-04-08T03:33:59.346Z,101038.72
2023-04-08T03:36:28.041Z,101046.47
2023-04-08T03:38:56.257Z,101044.56
2023-04-08T03:41:24.419Z,101050.66
2023-04-08T03:43:52.398Z,101055.19
2023-04-08T03:46:21.706Z,101052.63
2023-04-08T03:48:51.680Z,101044.78
2023-04-08T03:51:21.119Z,101050.03
2023-04-08T03:53:49.237Z,101050.94
2023-04-08T03:56:17.063Z,101048.41
2023-04-08T03:58:44.973Z,101043.34
2023-04-08T04:01:12.772Z,101049.81
2023-04-08T04:03:41.409Z,101048.19
2023-04-08T04:06:10.113Z,101046.38
2023-04-08T04:08:40.292Z,101055.09
2023-04-08T04:11:09.257Z,101050.56
2023-04-08T04:13:38.546Z,101051.47
2023-04-08T04:16:07.248Z,101053.78
2023-04-08T04:18:37.228Z,101050.25
2023-04-08T04:21:07.276Z,101063.97
2023-04-08T04:23:35.341Z,101068.16
2023-04-08T04:26:09.649Z,101056.13
2023-04-08T04:28:40.493Z,101058.72
2023-04-08T04:31:19.794Z,101066.63
2023-04-08T04:33:50.471Z,101063.16
2023-04-08T04:36:23.044Z,101068.38
2023-04-08T04:38:53.711Z,101070.19
2023-04-08T04:41:23.229Z,101063.09
2023-04-08T04:43:51.129Z,101071.69
2023-04-08T04:46:19.434Z,101069.94
2023-04-08T04:48:48.222Z,101063.09
2023-04-08T04:51:16.656Z,101064.25
2023-04-08T04:53:44.536Z,101074.00
2023-04-08T04:56:12.385Z,101078.31
2023-04-08T04:58:42.101Z,101075.13
2023-04-08T05:01:12.475Z,101080.22
2023-04-08T05:03:40.677Z,101085.47
2023-04-08T05:06:08.894Z,101078.63
2023-04-08T05:08:37.616Z,101077.97
2023-04-08T05:11:05.985Z,101075.81
2023-04-08T05:13:33.814Z,101076.75
2023-04-08T05:16:05.920Z,101080.19
2023-04-08T05:18:35.481Z,101079.38
2023-04-08T05:21:03.375Z,101080.06
2023-04-08T05:23:31.513Z,101083.50
2023-04-08T05:25:59.377Z,101087.59
2023-04-08T05:28:52.893Z,101090.75
2023-04-08T05:31:48.354Z,101088.59
2023-04-08T05:34:22.825Z,101086.69
2023-04-08T05:36:52.910Z,101094.25
2023-04-08T05:39:21.328Z,101094.72
2023-04-08T05:41:50.439Z,101096.34
2023-04-08T05:44:19.023Z,101104.72
2023-04-08T05:46:48.427Z,101107.03
2023-04-08T05:49:20.362Z,101105.91
2023-04-08T05:51:48.620Z,101108.34
2023-04-08T05:54:17.074Z,101110.66
2023-04-08T05:56:46.562Z,101111.19
2023-04-08T05:59:14.404Z,101112.72
2023-04-08T06:01:42.391Z,101119.66
2023-04-08T06:04:13.636Z,101121.97
2023-04-08T06:06:41.903Z,101131.44
2023-04-08T06:09:10.320Z,101127.88
2023-04-08T06:11:38.606Z,101131.94
2023-04-08T06:14:06.528Z,101126.53
2023-04-08T06:16:34.786Z,101139.56
2023-04-08T06:19:02.950Z,101132.47
2023-04-08T06:21:34.788Z,101137.31
2023-04-08T06:24:04.733Z,101138.94
2023-04-08T06:26:34.260Z,101142.94
2023-04-08T06:29:03.214Z,101145.06
2023-04-08T06:31:31.381Z,101143.72
2023-04-08T06:33:59.637Z,101145.09
2023-04-08T06:36:28.382Z,101143.91
2023-04-08T06:38:57.622Z,101154.56
2023-04-08T06:41:25.391Z,101149.88
2023-04-08T06:43:55.783Z,101151.97
2023-04-08T06:46:27.320Z,101153.50
2023-04-08T06:48:55.636Z,101144.47
2023-04-08T06:51:23.504Z,101148.38
2023-04-08T06:53:51.925Z,101154.09
2023-04-08T06:56:23.149Z,101152.56
2023-04-08T06:58:51.633Z,101159.84
2023-04-08T07:01:20.823Z,101152.22
2023-04-08T07:03:49.117Z,101150.75
2023-04-08T07:06:18.260Z,101150.59
2023-04-08T07:08:46.355Z,101145.88
2023-04-08T07:11:14.144Z,101153.31
2023-04-08T07:13:43.645Z,101153.53
2023-04-08T07:16:11.629Z,101159.19
2023-04-08T07:18:41.446Z,101167.13
2023-04-08T07:21:09.456Z,101169.31
2023-04-08T07:23:37.258Z,101164.66
2023-04-08T07:26:05.888Z,101168.03
2023-04-08T07:28:33.843Z,101169.72
2023-04-08T07:31:12.242Z,101176.56
2023-04-08T07:33:40.576Z,101169.91
2023-04-08T07:36:09.863Z,101183.59
2023-04-08T07:38:38.120Z,101179.38
2023-04-08T07:41:06.941Z,101180.97
2023-04-08T07:43:37.315Z,101180.34
2023-04-08T07:46:06.388Z,101185.88
2023-04-08T07:48:38.880Z,101185.97
2023-04-08T07:51:10.907Z,101188.72
2023-04-08T07:53:40.653Z,101200.91
2023-04-08T07:56:14.233Z,101196.84
2023-04-08T07:58:42.691Z,101189.03
2023-04-08T08:01:18.636Z,101201.81
2023-04-08T08:03:50.746Z,101194.28
2023-04-08T08:06:19.042Z,101199.19
2023-04-08T08:08:47.297Z,101206.69
2023-04-08T08:11:15.411Z,101211.50
2023-04-08T08:13:43.483Z,101217.88
2023-04-08T08:16:12.670Z,101219.47
2023-04-08T08:18:41.432Z,101222.00
2023-04-08T08:21:16.020Z,101222.66
2023-04-08T08:23:45.003Z,101229.16
2023-04-08T08:26:13.156Z,101231.50
2023-04-08T08:28:40.992Z,101232.03
2023-04-08T08:31:09.100Z,101225.25
2023-04-08T08:33:39.614Z,101226.00
2023-04-08T08:36:08.950Z,101226.47
2023-04-08T08:38:39.514Z,101216.81
2023-04-08T08:41:08.169Z,101221.13
2023-04-08T08:43:36.711Z,101221.16
2023-04-08T08:46:05.457Z,101225.19
2023-04-08T08:48:34.011Z,101230.16
2023-04-08T08:51:02.287Z,101227.19
2023-04-08T08:53:35.963Z,101231.25
2023-04-08T08:56:17.875Z,101233.25
2023-04-08T08:58:47.426Z,101236.34
2023-04-08T09:01:37.409Z,101244.69
2023-04-08T09:04:15.780Z,101236.47
2023-04-08T09:06:44.602Z,101240.69
2023-04-08T09:09:12.597Z,101233.09
2023-04-08T09:11:46.288Z,101232.03
2023-04-08T09:14:27.589Z,101241.44
2023-04-08T09:16:55.612Z,101235.81
2023-04-08T09:19:23.778Z,101238.38
2023-04-08T09:22:07.242Z,101234.56
2023-04-08T09:24:37.115Z,101236.25
2023-04-08T09:27:08.821Z,101240.25
2023-04-08T09:29:40.163Z,101244.72
2023-04-08T09:32:10.424Z,101247.44
2023-04-08T09:34:38.343Z,101245.03
2023-04-08T09:37:07.178Z,101254.09
2023-04-08T09:39:35.600Z,101252.31
2023-04-08T09:42:10.426Z,101248.50
2023-04-08T09:44:39.167Z,101257.88
2023-04-08T09:47:13.940Z,101251.13
2023-04-08T09:49:48.072Z,101265.06
2023-04-08T09:52:21.859Z,101250.72
2023-04-08T09:54:57.002Z,101262.06
2023-04-08T09:57:33.449Z,101251.84
2023-04-08T10:00:06.586Z,101253.41
2023-04-08T10:02:50.598Z,101248.59
2023-04-08T10:05:19.460Z,101235.44
2023-04-08T10:07:48.608Z,101233.25
2023-04-08T10:10:16.683Z,101244.38
2023-04-08T10:12:46.190Z,101245.53
2023-04-08T10:15:26.955Z,101235.38
2023-04-08T10:17:57.065Z,101243.06
2023-04-08T10:20:49.819Z,101237.31
2023-04-08T10:23:22.061Z,101227.44
2023-04-08T10:25:50.409Z,101238.22
2023-04-08T10:28:29.915Z,101236.25
2023-04-08T10:30:58.700Z,101232.66
2023-04-08T10:33:34.574Z,101239.06
2023-04-08T10:36:12.571Z,101231.03
2023-04-08T10:38:42.301Z,101232.28
2023-04-08T10:41:11.996Z,101236.31
2023-04-08T10:43:41.575Z,101241.47
2023-04-08T10:46:12.454Z,101238.47
2023-04-08T10:48:40.493Z,101244.88
2023-04-08T10:51:08.651Z,101237.06
2023-04-08T10:53:40.358Z,101228.97
2023-04-08T10:56:10.966Z,101230.63
2023-04-08T10:58:51.775Z,101237.22
2023-04-08T11:01:20.938Z,101228.88
2023-04-08T11:03:50.129Z,101222.75
2023-04-08T11:06:19.500Z,101220.09
2023-04-08T11:08:48.129Z,101222.25
2023-04-08T11:11:22.465Z,101212.41
2023-04-08T11:13:54.011Z,101214.53
2023-04-08T11:16:23.648Z,101212.56
2023-04-08T11:18:54.437Z,101209.94
2023-04-08T11:21:25.544Z,101210.72
2023-04-08T11:23:54.310Z,101213.16
2023-04-08T11:26:22.856Z,101212.25
2023-04-08T11:28:52.687Z,101208.81
2023-04-08T11:31:24.922Z,101207.09
2023-04-08T11:33:55.161Z,101215.00
2023-04-08T11:36:27.147Z,101216.09
2023-04-08T11:38:56.668Z,101222.78
2023-04-08T11:41:24.749Z,101213.41
2023-04-08T11:43:55.598Z,101220.19
2023-04-08T11:46:26.332Z,101215.38
2023-04-08T11:49:06.577Z,101208.72
2023-04-08T11:51:35.872Z,101215.63
2023-04-08T11:54:07.223Z,101210.78
2023-04-08T11:56:46.765Z,101211.44
2023-04-08T11:59:16.301Z,101207.09
2023-04-08T12:01:44.218Z,101213.63
2023-04-08T12:04:12.758Z,101217.25
2023-04-08T12:06:43.615Z,101207.63
2023-04-08T12:09:11.855Z,101209.66
2023-04-08T12:11:40.216Z,101205.47
2023-04-08T12:14:08.471Z,101205.72
2023-04-08T12:16:37.925Z,101206.84
2023-04-08T12:19:07.224Z,101198.31
2023-04-08T12:21:35.480Z,101211.22
2023-04-08T12:24:03.535Z,101203.22
2023-04-08T12:26:31.617Z,101202.50
2023-04-08T12:28:59.616Z,101202.84
2023-04-08T12:31:28.386Z,101200.75
2023-04-08T12:33:57.669Z,101202.84
2023-04-08T12:36:26.951Z,101202.31
2023-04-08T12:38:57.196Z,101202.56
2023-04-08T12:41:25.415Z,101204.81
2023-04-08T12:43:53.210Z,101205.94
2023-04-08T12:46:21.563Z,101206.06
2023-04-08T12:48:59.707Z,101212.66
2023-04-08T12:51:33.224Z,101214.28
2023-04-08T12:54:01.865Z,101204.47
2023-04-08T12:56:30.079Z,101211.81
2023-04-08T12:58:58.174Z,101208.16
2023-04-08T13:01:26.370Z,101215.41
2023-04-08T13:03:57.366Z,101209.81
2023-04-08T13:06:25.855Z,101215.63
2023-04-08T13:08:56.677Z,101208.72
2023-04-08T13:11:24.680Z,101204.44
2023-04-08T13:13:53.156Z,101204.00
2023-04-08T13:16:21.769Z,101201.84
2023-04-08T13:18:49.903Z,101208.59
2023-04-08T13:21:18.087Z,101202.19
2023-04-08T13:23:48.118Z,101203.84
2023-04-08T13:26:46.240Z,101200.16
2023-04-08T13:29:14.106Z,101199.31
2023-04-08T13:31:42.458Z,101196.41
2023-04-08T13:34:10.402Z,101192.84
2023-04-08T13:36:38.478Z,101199.03
2023-04-08T13:39:06.584Z,101197.41
2023-04-08T13:41:36.968Z,101198.47
2023-04-08T13:44:07.088Z,101198.50
2023-04-08T13:46:34.999Z,101200.19
2023-04-08T13:49:03.234Z,101198.47
2023-04-08T13:51:42.642Z,101196.75
2023-04-08T13:54:10.885Z,101197.94
2023-04-08T13:56:41.262Z,101193.47
2023-04-08T13:59:11.355Z,101189.03
2023-04-08T14:01:40.645Z,101195.72
2023-04-08T14:04:08.771Z,101198.50
2023-04-08T14:06:37.331Z,101197.16
2023-04-08T14:09:06.033Z,101200.38
2023-04-08T14:11:38.086Z,101207.00
2023-04-08T14:14:06.512Z,101198.47
2023-04-08T14:16:40.276Z,101203.38
2023-04-08T14:19:09.038Z,101199.75
2023-04-08T14:21:37.937Z,101207.72
2023-04-08T14:24:07.224Z,101204.97
2023-04-08T14:26:36.097Z,101202.06
2023-04-08T14:29:05.321Z,101211.97
2023-04-08T14:31:33.460Z,101197.59
2023-04-08T14:34:03.611Z,101195.09
2023-04-08T14:36:32.948Z,101194.75
2023-04-08T14:39:01.095Z,101192.53
2023-04-08T14:41:31.501Z,101189.94
2023-04-08T14:43:59.481Z,101199.56
2023-04-08T14:46:29.477Z,101190.72
2023-04-08T14:48:58.789Z,101201.25
2023-04-08T14:51:31.784Z,101196.63
2023-04-08T14:53:59.790Z,101197.81
2023-04-08T14:56:28.474Z,101195.47
2023-04-08T14:58:57.438Z,101199.34
2023-04-08T15:01:25.323Z,101190.25
2023-04-08T15:03:55.938Z,101195.56
2023-04-08T15:06:24.038Z,101194.13
2023-04-08T15:08:56.076Z,101191.06
2023-04-08T15:11:24.190Z,101195.44
2023-04-08T15:13:52.225Z,101193.16
2023-04-08T15:16:20.034Z,101193.69
2023-04-08T15:18:48.027Z,101189.88
2023-04-08T15:21:16.021Z,101189.56
2023-04-08T15:23:43.821Z,101194.22
2023-04-08T15:26:13.153Z,101204.25
2023-04-08T15:28:41.527Z,101192.94
2023-04-08T15:31:11.128Z,101201.28
2023-04-08T15:33:41.267Z,101204.69
2023-04-08T15:36:09.800Z,101198.50
2023-04-08T15:38:37.642Z,101197.91
2023-04-08T15:41:06.917Z,101202.78
2023-04-08T15:43:36.899Z,101199.84
2023-04-08T15:46:04.911Z,101195.31
2023-04-08T15:48:32.718Z,101203.63
2023-04-08T15:51:07.268Z,101206.81
2023-04-08T15:53:35.304Z,101207.91
2023-04-08T15:56:04.075Z,101215.84
2023-04-08T15:58:32.045Z,101212.44
2023-04-08T16:01:03.750Z,101216.06
2023-04-08T16:03:32.575Z,101215.22
2023-04-08T16:06:01.214Z,101218.72
2023-04-08T16:08:29.419Z,101227.16
2023-04-08T16:11:01.851Z,101219.13
2023-04-08T16:13:31.456Z,101217.56
2023-04-08T16:16:03.598Z,101221.06
2023-04-08T16:18:31.912Z,101225.25
2023-04-08T16:20:59.884Z,101236.34
2023-04-08T16:23:29.993Z,101224.78
2023-04-08T16:25:57.982Z,101230.63
2023-04-08T16:28:27.473Z,101232.25
2023-04-08T16:30:58.557Z,101232.13
2023-04-08T16:33:29.988Z,101228.31
2023-04-08T16:35:58.358Z,101237.47
2023-04-08T16:38:27.552Z,101233.75
2023-04-08T16:40:58.978Z,101237.88
2023-04-08T16:43:29.423Z,101242.72
2023-04-08T16:45:57.302Z,101242.50
2023-04-08T16:48:25.160Z,101243.81
2023-04-08T16:50:57.731Z,101239.25
2023-04-08T16:53:32.635Z,101245.38
2023-04-08T16:56:00.579Z,101244.06
2023-04-08T16:58:28.533Z,101246.50
2023-04-08T17:00:57.319Z,101245.91
2023-04-08T17:03:27.568Z,101256.66
2023-04-08T17:06:07.075Z,101258.31
2023-04-08T17:08:37.750Z,101266.41
2023-04-08T17:11:10.069Z,101267.72
2023-04-08T17:13:42.383Z,101259.41
2023-04-08T17:16:13.189Z,101266.41
2023-04-08T17:18:44.478Z,101270.25
2023-04-08T17:21:14.357Z,101267.84
2023-04-08T17:23:42.554Z,101274.69
2023-04-08T17:26:11.482Z,101280.31
2023-04-08T17:28:39.329Z,101283.34
2023-04-08T17:31:07.362Z,101279.47
2023-04-08T17:33:35.871Z,101288.91
2023-04-08T17:36:04.427Z,101284.78
2023-04-08T17:38:36.841Z,101294.69
2023-04-08T17:41:05.567Z,101294.75
2023-04-08T17:43:33.371Z,101294.81
2023-04-08T17:46:01.902Z,101294.94
2023-04-08T17:48:30.114Z,101292.25
2023-04-08T17:51:02.232Z,101306.22
2023-04-08T17:53:31.537Z,101300.84
2023-04-08T17:56:02.054Z,101318.09
2023-04-08T17:58:32.168Z,101324.25
2023-04-08T18:01:00.278Z,101317.84
2023-04-08T18:03:28.168Z,101317.31
2023-04-08T18:05:56.185Z,101328.28
2023-04-08T18:08:24.346Z,101331.97
2023-04-08T18:10:54.121Z,101332.13
2023-04-08T18:13:25.788Z,101334.81
2023-04-08T18:15:55.934Z,101338.22
2023-04-08T18:18:24.962Z,101334.19
2023-04-08T18:20:54.676Z,101338.66
2023-04-08T18:23:23.254Z,101347.72
2023-04-08T18:25:53.475Z,101351.31
2023-04-08T18:28:25.132Z,101356.69
2023-04-08T18:30:55.576Z,101369.81
2023-04-08T18:33:23.622Z,101367.44
2023-04-08T18:35:52.924Z,101366.59
2023-04-08T18:38:21.800Z,101364.03
2023-04-08T18:40:49.938Z,101367.78
2023-04-08T18:43:17.933Z,101380.09
2023-04-08T18:45:47.138Z,101366.09
2023-04-08T18:48:15.815Z,101375.78
2023-04-08T18:50:44.180Z,101379.38
2023-04-08T18:53:12.313Z,101377.06
2023-04-08T18:55:41.979Z,101378.09
2023-04-08T18:58:10.043Z,101377.25
2023-04-08T19:00:41.395Z,101373.97
2023-04-08T19:03:13.161Z,101381.16
2023-04-08T19:05:44.209Z,101384.03
2023-04-08T19:08:13.068Z,101390.13
2023-04-08T19:10:41.614Z,101382.31
2023-04-08T19:13:10.177Z,101391.28
2023-04-08T19:15:40.672Z,101386.22
2023-04-08T19:18:13.125Z,101389.88
2023-04-08T19:20:41.704Z,101390.94
2023-04-08T19:23:11.256Z,101393.69
2023-04-08T19:25:39.794Z,101389.56
2023-04-08T19:28:10.392Z,101400.22
2023-04-08T19:30:38.795Z,101395.16
2023-04-08T19:33:07.963Z,101401.28
2023-04-08T19:35:38.115Z,101398.09
2023-04-08T19:38:06.435Z,101400.91
2023-04-08T19:40:35.694Z,101399.16
2023-04-08T19:43:04.421Z,101402.09
2023-04-08T19:45:34.629Z,101400.19
2023-04-08T19:48:04.451Z,101400.28
2023-04-08T19:50:35.727Z,101405.69
2023-04-08T19:53:05.377Z,101408.50
2023-04-08T19:55:37.691Z,101401.53
2023-04-08T19:58:11.946Z,101403.44
2023-04-08T20:00:48.048Z,101409.84
2023-04-08T20:03:17.268Z,101406.47
2023-04-08T20:05:48.507Z,101416.19
2023-04-08T20:08:24.069Z,101418.91
2023-04-08T20:10:55.726Z,101412.25
2023-04-08T20:13:24.478Z,101414.03
2023-04-08T20:15:59.406Z,101416.78
2023-04-08T20:18:30.260Z,101410.66
2023-04-08T20:21:00.251Z,101421.22
2023-04-08T20:23:33.485Z,101418.75
2023-04-08T20:26:02.137Z,101410.19
2023-04-08T20:28:30.578Z,101420.88
2023-04-08T20:30:59.422Z,101424.53
2023-04-08T20:33:30.622Z,101422.00
2023-04-08T20:35:59.101Z,101425.66
2023-04-08T20:38:28.184Z,101419.75
2023-04-08T20:41:00.366Z,101425.09
2023-04-08T20:43:38.903Z,101422.59
2023-04-08T20:46:17.582Z,101420.25
2023-04-08T20:48:51.863Z,101425.63
2023-04-08T20:51:23.543Z,101429.09
2023-04-08T20:53:53.781Z,101428.63
2023-04-08T20:56:27.552Z,101426.38
2023-04-08T20:58:58.210Z,101426.59
2023-04-08T21:01:27.911Z,101422.44
2023-04-08T21:03:59.470Z,101429.16
2023-04-08T21:06:31.767Z,101431.22
2023-04-08T21:09:00.954Z,101424.44
2023-04-08T21:11:30.594Z,101424.81
2023-04-08T21:13:59.469Z,101425.19
2023-04-08T21:16:29.158Z,101436.09
2023-04-08T21:19:01.227Z,101434.00
2023-04-08T21:21:29.450Z,101432.69
2023-04-08T21:24:00.571Z,101436.53
2023-04-08T21:26:30.638Z,101433.31
2023-04-08T21:28:58.555Z,101436.25
2023-04-08T21:31:27.373Z,101435.56
2023-04-08T21:33:55.672Z,101436.72
2023-04-08T21:36:23.957Z,101434.16
2023-04-08T21:38:52.177Z,101441.41
2023-04-08T21:41:21.375Z,101438.19
2023-04-08T21:43:51.646Z,101437.34
2023-04-08T21:46:20.140Z,101434.78
2023-04-08T21:48:48.270Z,101439.31
2023-04-08T21:51:17.566Z,101435.16
2023-04-08T21:53:45.514Z,101429.22
2023-04-08T21:56:14.126Z,101440.78
2023-04-08T21:58:42.036Z,101446.03
2023-04-08T22:01:11.366Z,101434.75
2023-04-08T22:03:39.894Z,101440.09
2023-04-08T22:06:12.738Z,101443.59
2023-04-08T22:08:45.820Z,101444.53
2023-04-08T22:11:13.841Z,101442.72
2023-04-08T22:13:41.831Z,101448.19
2023-04-08T22:16:11.484Z,101450.06
2023-04-08T22:18:39.681Z,101440.72
2023-04-08T22:21:07.717Z,101439.97
2023-04-08T22:23:38.891Z,101438.38
2023-04-08T22:26:07.034Z,101432.44
2023-04-08T22:28:35.069Z,101431.97
2023-04-08T22:31:03.426Z,101424.16
2023-04-08T22:33:32.756Z,101425.28
2023-04-08T22:36:00.994Z,101435.22
2023-04-08T22:38:31.361Z,101438.09
2023-04-08T22:40:59.478Z,101434.78
2023-04-08T22:43:27.964Z,101436.69
2023-04-08T22:45:56.724Z,101441.75
2023-04-08T22:48:24.667Z,101438.38
2023-04-08T22:50:53.816Z,101437.50
2023-04-08T22:53:21.857Z,101432.44
2023-04-08T22:55:51.985Z,101430.81
2023-04-08T22:58:19.857Z,101426.59
2023-04-08T23:00:47.781Z,101435.47
2023-04-08T23:03:15.804Z,101428.53
2023-04-08T23:05:43.722Z,101431.16
2023-04-08T23:08:12.854Z,101442.53
2023-04-08T23:10:40.797Z,101438.13
2023-04-08T23:13:08.697Z,101438.19
2023-04-08T23:15:36.608Z,101435.06
2023-04-08T23:18:04.688Z,101441.25
2023-04-08T23:20:33.011Z,101439.72
2023-04-08T23:23:00.920Z,101439.91
2023-04-08T23:25:30.248Z,101439.84
2023-04-08T23:27:59.599Z,101442.78
2023-04-08T23:30:27.478Z,101439.31
2023-04-08T23:32:55.644Z,101441.09
2023-04-08T23:35:23.934Z,101438.38
2023-04-08T23:37:52.972Z,101441.94
2023-04-08T23:40:21.518Z,101447.38
2023-04-08T23:42:51.029Z,101443.97
2023-04-08T23:45:19.311Z,101456.41
2023-04-08T23:47:47.531Z,101446.84
2023-04-08T23:50:15.679Z,101448.47
2023-04-08T23:52:43.615Z,101457.28
2023-04-08T23:55:11.995Z,101448.63
2023-04-08T23:57:43.717Z,101452.00
